createdAt,value
2022-08-20T00:02:15.268Z,74.74
2022-08-20T00:04:43.911Z,74.97
2022-08-20T00:07:14.586Z,75.12
2022-08-20T00:09:43.701Z,75.22
2022-08-20T00:12:17.672Z,75.29
2022-08-20T00:14:45.776Z,75.79
2022-08-20T00:17:13.880Z,76.67
2022-08-20T00:19:41.907Z,77.14
2022-08-20T00:22:09.871Z,77.14
2022-08-20T00:24:38.104Z,76.72
2022-08-20T00:27:06.239Z,76.27
2022-08-20T00:29:34.255Z,75.85
2022-08-20T00:32:02.124Z,75.54
2022-08-20T00:34:30.228Z,75.33
2022-08-20T00:36:58.047Z,75.20
2022-08-20T00:39:25.917Z,75.20
2022-08-20T00:41:53.822Z,75.30
2022-08-20T00:44:22.902Z,75.30
2022-08-20T00:46:52.783Z,75.56
2022-08-20T00:49:26.451Z,75.99
2022-08-20T00:52:11.281Z,76.25
2022-08-20T00:54:58.103Z,75.68
2022-08-20T00:57:59.851Z,75.26
2022-08-20T01:00:42.812Z,74.97
2022-08-20T01:03:15.114Z,75.17
2022-08-20T01:05:47.025Z,75.39
2022-08-20T01:08:19.321Z,75.14
2022-08-20T01:10:50.032Z,74.87
2022-08-20T01:13:23.738Z,74.84
2022-08-20T01:15:56.073Z,74.77
2022-08-20T01:18:27.945Z,74.81
2022-08-20T01:21:02.864Z,74.74
2022-08-20T01:24:01.814Z,74.88
2022-08-20T01:26:37.526Z,75.04
2022-08-20T01:29:20.312Z,75.11
2022-08-20T01:31:48.354Z,75.03
2022-08-20T01:34:21.710Z,75.11
2022-08-20T01:36:53.597Z,75.30
2022-08-20T01:39:30.452Z,75.33
2022-08-20T01:42:17.599Z,75.32
2022-08-20T01:44:47.097Z,75.19
2022-08-20T01:47:23.817Z,75.12
2022-08-20T01:50:00.188Z,75.50
2022-08-20T01:52:51.777Z,75.67
2022-08-20T01:55:19.742Z,75.85
2022-08-20T01:57:48.867Z,76.11
2022-08-20T02:00:20.079Z,76.15
2022-08-20T02:02:50.811Z,76.43
2022-08-20T02:05:20.135Z,76.39
2022-08-20T02:07:48.359Z,76.43
2022-08-20T02:10:18.524Z,76.44
2022-08-20T02:12:46.395Z,76.57
2022-08-20T02:15:15.060Z,76.80
2022-08-20T02:17:44.744Z,76.94
2022-08-20T02:20:23.913Z,76.82
2022-08-20T02:22:58.799Z,77.00
2022-08-20T02:25:31.977Z,77.57
2022-08-20T02:28:04.969Z,78.30
2022-08-20T02:30:39.161Z,77.89
2022-08-20T02:33:12.221Z,77.65
2022-08-20T02:35:44.227Z,77.57
2022-08-20T02:38:12.595Z,77.63
2022-08-20T02:40:40.837Z,77.92
2022-08-20T02:43:08.602Z,78.16
2022-08-20T02:45:38.345Z,78.17
2022-08-20T02:48:06.179Z,78.38
2022-08-20T02:50:34.273Z,78.91
2022-08-20T02:53:02.592Z,78.91
2022-08-20T02:55:30.444Z,78.98
2022-08-20T02:58:00.425Z,79.11
2022-08-20T03:00:38.402Z,79.14
2022-08-20T03:03:12.556Z,79.35
2022-08-20T03:05:44.134Z,79.79
2022-08-20T03:08:13.676Z,80.05
2022-08-20T03:10:44.665Z,79.93
2022-08-20T03:13:15.493Z,80.07
2022-08-20T03:15:49.496Z,80.27
2022-08-20T03:18:20.502Z,80.04
2022-08-20T03:20:51.319Z,80.19
2022-08-20T03:23:21.682Z,80.26
2022-08-20T03:25:49.915Z,80.63
2022-08-20T03:28:19.395Z,80.84
2022-08-20T03:30:47.544Z,80.77
2022-08-20T03:33:16.475Z,81.06
2022-08-20T03:35:44.279Z,81.41
2022-08-20T03:38:15.694Z,81.70
2022-08-20T03:40:44.479Z,81.94
2022-08-20T03:43:12.757Z,82.47
2022-08-20T03:45:44.196Z,82.38
2022-08-20T03:48:18.679Z,82.61
2022-08-20T03:50:48.910Z,82.82
2022-08-20T03:53:17.913Z,82.36
2022-08-20T03:55:54.156Z,81.94
2022-08-20T03:58:33.262Z,81.65
2022-08-20T04:01:07.477Z,81.59
2022-08-20T04:03:41.181Z,81.37
2022-08-20T04:06:09.026Z,81.62
2022-08-20T04:08:37.913Z,81.46
2022-08-20T04:11:05.919Z,81.77
2022-08-20T04:13:33.737Z,82.20
2022-08-20T04:16:11.755Z,83.09
2022-08-20T04:18:43.432Z,83.64
2022-08-20T04:21:32.950Z,83.52
2022-08-20T04:24:04.267Z,83.78
2022-08-20T04:26:32.688Z,83.99
2022-08-20T04:29:00.471Z,83.80
2022-08-20T04:31:33.955Z,84.57
2022-08-20T04:34:04.359Z,83.84
2022-08-20T04:36:32.185Z,83.62
2022-08-20T04:39:00.006Z,83.74
2022-08-20T04:41:28.078Z,83.77
2022-08-20T04:43:57.032Z,83.89
2022-08-20T04:46:28.000Z,83.48
2022-08-20T04:48:57.576Z,83.33
2022-08-20T04:51:28.046Z,83.28
2022-08-20T04:53:57.943Z,83.26
2022-08-20T04:56:30.829Z,83.01
2022-08-20T04:59:01.482Z,82.88
2022-08-20T05:01:29.493Z,83.33
2022-08-20T05:03:58.387Z,83.30
2022-08-20T05:06:31.189Z,83.46
2022-08-20T05:09:00.966Z,83.10
2022-08-20T05:11:33.914Z,83.18
2022-08-20T05:14:09.202Z,82.39
2022-08-20T05:16:39.480Z,81.71
2022-08-20T05:19:11.498Z,82.13
2022-08-20T05:21:40.152Z,82.69
2022-08-20T05:24:10.167Z,82.54
2022-08-20T05:26:38.227Z,82.30
2022-08-20T05:29:06.890Z,81.99
2022-08-20T05:31:35.572Z,82.07
2022-08-20T05:34:11.170Z,82.33
2022-08-20T05:36:45.451Z,82.30
2022-08-20T05:39:16.519Z,82.55
2022-08-20T05:41:44.267Z,81.79
2022-08-20T05:44:15.486Z,81.72
2022-08-20T05:46:46.306Z,81.67
2022-08-20T05:49:19.991Z,81.55
2022-08-20T05:51:51.209Z,81.29
2022-08-20T05:54:19.527Z,81.54
2022-08-20T05:56:47.593Z,81.75
2022-08-20T05:59:15.904Z,82.04
2022-08-20T06:01:44.095Z,82.08
2022-08-20T06:04:32.083Z,82.07
2022-08-20T06:07:06.995Z,82.05
2022-08-20T06:09:36.395Z,81.67
2022-08-20T06:12:08.981Z,81.25
2022-08-20T06:14:36.949Z,80.78
2022-08-20T06:17:09.684Z,80.63
2022-08-20T06:19:38.765Z,80.09
2022-08-20T06:22:19.055Z,79.68
2022-08-20T06:24:55.065Z,80.21
2022-08-20T06:27:23.764Z,80.71
2022-08-20T06:29:52.255Z,80.46
2022-08-20T06:32:32.363Z,80.44
2022-08-20T06:35:03.183Z,79.78
2022-08-20T06:37:36.453Z,79.35
2022-08-20T06:40:16.210Z,79.33
2022-08-20T06:42:48.455Z,78.68
2022-08-20T06:45:28.457Z,78.25
2022-08-20T06:48:02.168Z,78.04
2022-08-20T06:50:44.466Z,78.24
2022-08-20T06:53:20.750Z,78.78
2022-08-20T06:55:54.569Z,78.86
2022-08-20T06:58:36.627Z,77.67
2022-08-20T07:01:10.215Z,77.22
2022-08-20T07:03:54.204Z,78.00
2022-08-20T07:06:27.762Z,78.13
2022-08-20T07:08:56.130Z,78.92
2022-08-20T07:11:28.156Z,78.96
2022-08-20T07:13:58.466Z,78.26
2022-08-20T07:16:27.334Z,77.95
2022-08-20T07:18:55.174Z,77.62
2022-08-20T07:21:23.254Z,78.25
2022-08-20T07:23:51.083Z,77.92
2022-08-20T07:26:19.421Z,76.41
2022-08-20T07:28:47.718Z,75.14
2022-08-20T07:31:35.011Z,74.90
2022-08-20T07:34:04.193Z,73.70
2022-08-20T07:36:32.911Z,73.67
2022-08-20T07:39:05.911Z,73.34
2022-08-20T07:41:34.194Z,73.80
2022-08-20T07:44:02.581Z,74.19
2022-08-20T07:46:31.622Z,73.09
2022-08-20T07:48:59.850Z,73.21
2022-08-20T07:51:28.650Z,74.08
2022-08-20T07:53:58.299Z,73.81
2022-08-20T07:56:28.083Z,73.60
2022-08-20T07:59:01.454Z,73.29
2022-08-20T08:01:32.199Z,72.98
2022-08-20T08:04:00.722Z,73.04
2022-08-20T08:06:31.659Z,73.70
2022-08-20T08:09:09.986Z,73.58
2022-08-20T08:11:47.258Z,71.77
2022-08-20T08:14:24.812Z,71.87
2022-08-20T08:17:02.510Z,71.39
2022-08-20T08:19:38.684Z,71.06
2022-08-20T08:22:13.298Z,70.45
2022-08-20T08:24:56.698Z,69.87
2022-08-20T08:27:25.436Z,68.25
2022-08-20T08:29:53.270Z,68.54
2022-08-20T08:32:21.071Z,69.23
2022-08-20T08:34:48.831Z,69.25
2022-08-20T08:37:16.754Z,67.97
2022-08-20T08:39:44.638Z,68.08
2022-08-20T08:42:43.988Z,66.82
2022-08-20T08:45:16.882Z,65.94
2022-08-20T08:47:45.303Z,66.08
2022-08-20T08:50:44.076Z,65.23
2022-08-20T08:53:26.293Z,64.11
2022-08-20T08:55:54.611Z,63.51
2022-08-20T08:58:22.604Z,64.56
2022-08-20T09:00:56.107Z,64.75
2022-08-20T09:03:30.914Z,66.04
2022-08-20T09:06:01.931Z,66.34
2022-08-20T09:08:48.293Z,64.84
2022-08-20T09:11:17.991Z,64.12
2022-08-20T09:13:45.967Z,64.29
2022-08-20T09:16:14.847Z,64.80
2022-08-20T09:18:43.299Z,63.32
2022-08-20T09:21:11.356Z,62.33
2022-08-20T09:23:39.183Z,62.18
2022-08-20T09:26:07.833Z,61.85
2022-08-20T09:28:37.281Z,62.79
2022-08-20T09:31:05.484Z,64.13
2022-08-20T09:33:34.965Z,64.83
2022-08-20T09:36:03.276Z,64.10
2022-08-20T09:38:51.089Z,64.45
2022-08-20T09:41:18.973Z,64.62
2022-08-20T09:43:46.979Z,65.39
2022-08-20T09:46:14.798Z,64.38
2022-08-20T09:48:42.570Z,63.77
2022-08-20T09:51:10.387Z,64.69
2022-08-20T09:53:38.360Z,65.00
2022-08-20T09:56:06.766Z,64.08
2022-08-20T09:58:49.867Z,64.26
2022-08-20T10:01:21.141Z,64.21
2022-08-20T10:03:50.406Z,64.42
2022-08-20T10:06:20.600Z,65.33
2022-08-20T10:08:49.614Z,64.78
2022-08-20T10:11:18.233Z,64.60
2022-08-20T10:13:46.090Z,65.07
2022-08-20T10:16:13.949Z,65.44
2022-08-20T10:18:41.789Z,64.74
2022-08-20T10:21:12.212Z,64.59
2022-08-20T10:23:40.506Z,64.95
2022-08-20T10:26:10.462Z,65.10
2022-08-20T10:28:39.271Z,64.98
2022-08-20T10:31:09.717Z,64.90
2022-08-20T10:33:39.408Z,65.40
2022-08-20T10:36:15.383Z,65.78
2022-08-20T10:38:44.781Z,65.47
2022-08-20T10:41:12.581Z,64.71
2022-08-20T10:43:40.507Z,64.38
2022-08-20T10:46:09.121Z,63.52
2022-08-20T10:48:37.697Z,62.57
2022-08-20T10:51:06.594Z,62.70
2022-08-20T10:53:35.201Z,62.21
2022-08-20T10:56:03.383Z,62.39
2022-08-20T10:58:39.269Z,61.96
2022-08-20T11:01:08.911Z,61.39
2022-08-20T11:03:36.805Z,60.66
2022-08-20T11:06:05.143Z,60.62
2022-08-20T11:08:34.761Z,61.19
2022-08-20T11:11:05.915Z,60.68
2022-08-20T11:13:35.235Z,61.21
2022-08-20T11:16:04.564Z,61.87
2022-08-20T11:18:33.109Z,62.92
2022-08-20T11:21:01.529Z,63.47
2022-08-20T11:23:30.464Z,62.65
2022-08-20T11:25:58.958Z,61.63
2022-08-20T11:28:31.552Z,61.17
2022-08-20T11:31:01.906Z,60.85
2022-08-20T11:33:30.457Z,60.12
2022-08-20T11:35:58.347Z,60.40
2022-08-20T11:38:27.054Z,61.50
2022-08-20T11:40:54.802Z,61.91
2022-08-20T11:43:22.714Z,61.03
2022-08-20T11:45:55.418Z,60.06
2022-08-20T11:48:24.108Z,59.42
2022-08-20T11:50:52.043Z,59.87
2022-08-20T11:53:19.977Z,59.53
2022-08-20T11:55:50.045Z,58.80
2022-08-20T11:58:18.701Z,59.44
2022-08-20T12:00:46.525Z,59.85
2022-08-20T12:03:14.878Z,60.55
2022-08-20T12:05:45.493Z,60.42
2022-08-20T12:08:27.290Z,59.38
2022-08-20T12:10:59.795Z,58.21
2022-08-20T12:13:47.528Z,57.31
2022-08-20T12:16:19.022Z,57.98
2022-08-20T12:18:48.339Z,57.70
2022-08-20T12:21:16.864Z,56.48
2022-08-20T12:23:45.038Z,55.79
2022-08-20T12:26:13.254Z,54.31
2022-08-20T12:28:40.987Z,53.01
2022-08-20T12:31:08.920Z,52.83
2022-08-20T12:33:36.957Z,55.46
2022-08-20T12:36:05.042Z,55.33
2022-08-20T12:38:32.894Z,54.52
2022-08-20T12:41:01.310Z,56.15
2022-08-20T12:43:29.149Z,57.27
2022-08-20T12:45:56.936Z,58.32
2022-08-20T12:48:24.778Z,57.89
2022-08-20T12:50:52.813Z,57.67
2022-08-20T12:53:20.683Z,58.14
2022-08-20T12:55:48.606Z,57.85
2022-08-20T12:58:16.408Z,57.26
2022-08-20T13:00:50.298Z,57.87
2022-08-20T13:03:21.036Z,56.54
2022-08-20T13:05:50.916Z,56.73
2022-08-20T13:08:19.473Z,55.84
2022-08-20T13:10:48.322Z,54.35
2022-08-20T13:13:20.584Z,54.49
2022-08-20T13:15:51.057Z,54.19
2022-08-20T13:18:20.467Z,53.78
2022-08-20T13:20:48.723Z,53.22
2022-08-20T13:23:17.379Z,51.67
2022-08-20T13:25:45.285Z,50.92
2022-08-20T13:28:13.084Z,51.82
2022-08-20T13:30:41.480Z,50.91
2022-08-20T13:33:09.701Z,52.42
2022-08-20T13:35:37.909Z,52.56
2022-08-20T13:38:05.875Z,53.18
2022-08-20T13:40:33.701Z,52.97
2022-08-20T13:43:06.573Z,53.08
2022-08-20T13:45:37.353Z,54.40
2022-08-20T13:48:08.295Z,54.86
2022-08-20T13:50:46.873Z,56.19
2022-08-20T13:53:16.317Z,56.70
2022-08-20T13:55:45.390Z,57.05
2022-08-20T13:58:13.254Z,56.72
2022-08-20T14:00:41.590Z,56.13
2022-08-20T14:03:09.678Z,56.06
2022-08-20T14:05:38.763Z,56.26
2022-08-20T14:08:11.731Z,56.70
2022-08-20T14:10:42.560Z,56.83
2022-08-20T14:13:15.288Z,57.00
2022-08-20T14:15:45.261Z,57.57
2022-08-20T14:18:15.274Z,58.53
2022-08-20T14:20:45.478Z,60.05
2022-08-20T14:23:15.352Z,60.12
2022-08-20T14:25:47.441Z,60.22
2022-08-20T14:28:24.250Z,62.21
2022-08-20T14:30:52.946Z,62.91
2022-08-20T14:33:23.656Z,63.05
2022-08-20T14:35:52.270Z,62.24
2022-08-20T14:38:20.222Z,61.78
2022-08-20T14:40:50.165Z,61.27
2022-08-20T14:43:18.371Z,60.89
2022-08-20T14:45:46.311Z,60.10
2022-08-20T14:48:15.059Z,59.19
2022-08-20T14:50:43.215Z,59.63
2022-08-20T14:53:10.993Z,60.77
2022-08-20T14:55:39.047Z,60.99
2022-08-20T14:58:10.590Z,60.73
2022-08-20T15:00:39.841Z,61.08
2022-08-20T15:03:07.821Z,62.32
2022-08-20T15:05:39.227Z,62.82
2022-08-20T15:08:08.662Z,62.52
2022-08-20T15:10:39.838Z,63.11
2022-08-20T15:13:09.075Z,63.38
2022-08-20T15:15:37.235Z,63.43
2022-08-20T15:18:05.278Z,64.87
2022-08-20T15:20:36.199Z,64.85
2022-08-20T15:23:05.561Z,64.71
2022-08-20T15:25:36.498Z,64.53
2022-08-20T15:28:09.675Z,64.82
2022-08-20T15:30:41.588Z,64.23
2022-08-20T15:33:10.382Z,65.72
2022-08-20T15:35:38.263Z,66.91
2022-08-20T15:38:06.131Z,66.12
2022-08-20T15:40:34.416Z,67.71
2022-08-20T15:43:04.824Z,69.46
2022-08-20T15:45:34.862Z,70.27
2022-08-20T15:48:19.191Z,70.25
2022-08-20T15:51:33.151Z,69.73
2022-08-20T15:54:11.797Z,69.39
2022-08-20T15:57:10.081Z,69.32
2022-08-20T16:00:20.158Z,68.60
2022-08-20T16:03:37.597Z,68.49
2022-08-20T16:06:32.551Z,69.25
2022-08-20T16:09:38.086Z,70.22
2022-08-20T16:12:23.933Z,70.40
2022-08-20T16:14:57.005Z,70.66
2022-08-20T16:17:39.487Z,71.67
2022-08-20T16:20:35.868Z,73.78
2022-08-20T16:23:04.862Z,76.52
2022-08-20T16:26:14.077Z,78.81
2022-08-20T16:29:03.188Z,79.88
2022-08-20T16:31:41.046Z,81.86
2022-08-20T16:34:34.433Z,84.02
2022-08-20T16:37:25.374Z,85.10
2022-08-20T16:40:17.429Z,86.31
2022-08-20T16:42:48.201Z,87.45
2022-08-20T16:45:28.529Z,89.10
2022-08-20T16:48:06.983Z,90.60
2022-08-20T16:50:48.566Z,91.04
2022-08-20T16:53:23.833Z,92.11
2022-08-20T16:55:56.018Z,92.75
2022-08-20T16:58:25.099Z,92.98
2022-08-20T17:01:14.748Z,94.16
2022-08-20T17:03:50.909Z,95.02
2022-08-20T17:06:44.493Z,95.49
2022-08-20T17:09:33.304Z,95.84
2022-08-20T17:12:22.233Z,95.83
2022-08-20T17:14:58.590Z,96.36
2022-08-20T17:17:36.306Z,96.47
2022-08-20T17:20:19.978Z,97.13
2022-08-20T17:23:18.409Z,97.18
2022-08-20T17:25:59.536Z,97.71
2022-08-20T17:28:32.013Z,97.43
2022-08-20T17:31:03.503Z,97.63
2022-08-20T17:33:36.783Z,97.82
2022-08-20T17:36:11.446Z,97.69
2022-08-20T17:38:52.931Z,97.59
2022-08-20T17:41:36.101Z,98.06
2022-08-20T17:44:17.321Z,98.08
2022-08-20T17:46:47.994Z,98.09
2022-08-20T17:49:26.738Z,98.15
2022-08-20T17:51:57.011Z,98.06
2022-08-20T17:54:39.179Z,98.12
2022-08-20T17:57:14.489Z,98.52
2022-08-20T18:00:01.232Z,98.36
2022-08-20T18:02:34.087Z,98.10
2022-08-20T18:05:19.641Z,98.11
2022-08-20T18:08:20.293Z,98.53
2022-08-20T18:11:20.570Z,98.32
2022-08-20T18:14:00.498Z,98.40
2022-08-20T18:16:59.540Z,98.28
2022-08-20T18:20:17.598Z,98.79
2022-08-20T18:23:20.400Z,98.51
2022-08-20T18:26:11.411Z,98.50
2022-08-20T18:28:56.565Z,98.62
2022-08-20T18:31:51.876Z,98.72
2022-08-20T18:34:29.603Z,98.71
2022-08-20T18:37:14.167Z,98.17
2022-08-20T18:39:46.889Z,98.60
2022-08-20T18:42:17.523Z,98.54
2022-08-20T18:44:49.743Z,98.49
2022-08-20T18:47:30.328Z,98.87
2022-08-20T18:50:16.021Z,98.94
2022-08-20T18:52:50.579Z,99.13
2022-08-20T18:55:41.854Z,98.89
2022-08-20T18:58:14.102Z,99.03
2022-08-20T19:00:49.941Z,98.86
2022-08-20T19:03:35.855Z,99.10
2022-08-20T19:06:29.192Z,99.09
2022-08-20T19:09:14.753Z,98.98
2022-08-20T19:12:10.411Z,99.09
2022-08-20T19:15:11.549Z,99.28
2022-08-20T19:18:08.292Z,98.92
2022-08-20T19:20:41.406Z,99.15
2022-08-20T19:23:15.531Z,99.19
2022-08-20T19:26:25.313Z,99.04
2022-08-20T19:29:07.120Z,98.80
2022-08-20T19:31:36.360Z,99.17
2022-08-20T19:34:21.899Z,99.11
2022-08-20T19:37:28.176Z,99.13
2022-08-20T19:39:53.849Z,99.12
2022-08-20T19:42:35.509Z,99.39
2022-08-20T19:45:09.129Z,99.11
2022-08-20T19:47:54.806Z,99.23
2022-08-20T19:50:37.382Z,99.10
2022-08-20T19:53:33.841Z,99.24
2022-08-20T19:56:16.068Z,99.39
2022-08-20T19:58:45.712Z,99.37
2022-08-20T20:01:21.305Z,99.19
2022-08-20T20:04:03.368Z,99.31
2022-08-20T20:06:37.638Z,99.26
2022-08-20T20:09:25.388Z,99.32
2022-08-20T20:12:00.411Z,99.39
2022-08-20T20:14:32.872Z,99.09
2022-08-20T20:17:05.278Z,99.49
2022-08-20T20:19:59.162Z,99.42
2022-08-20T20:22:50.305Z,99.73
2022-08-20T20:25:38.529Z,99.35
2022-08-20T20:28:20.310Z,99.49
2022-08-20T20:30:49.213Z,99.37
2022-08-20T20:33:42.077Z,99.41
2022-08-20T20:36:17.816Z,99.37
2022-08-20T20:38:59.535Z,99.44
2022-08-20T20:41:29.717Z,99.54
2022-08-20T20:44:26.898Z,99.53
2022-08-20T20:46:59.117Z,99.38
2022-08-20T20:49:48.686Z,99.36
2022-08-20T20:52:32.511Z,99.63
2022-08-20T20:55:23.412Z,99.58
2022-08-20T20:57:52.744Z,99.51
2022-08-20T21:00:24.635Z,98.96
2022-08-20T21:02:52.800Z,99.33
2022-08-20T21:05:25.020Z,99.05
2022-08-20T21:08:08.007Z,98.91
2022-08-20T21:10:38.027Z,98.93
2022-08-20T21:13:08.648Z,99.23
2022-08-20T21:15:39.438Z,99.19
2022-08-20T21:18:09.346Z,99.31
2022-08-20T21:20:37.658Z,99.21
2022-08-20T21:23:05.781Z,99.23
2022-08-20T21:25:35.163Z,99.09
2022-08-20T21:28:03.936Z,99.13
2022-08-20T21:30:32.091Z,99.14
2022-08-20T21:33:00.525Z,99.26
2022-08-20T21:35:28.558Z,99.08
2022-08-20T21:37:56.338Z,99.02
2022-08-20T21:40:24.238Z,99.12
2022-08-20T21:42:56.688Z,99.45
2022-08-20T21:45:28.370Z,98.98
2022-08-20T21:47:57.338Z,99.01
2022-08-20T21:50:26.518Z,99.12
2022-08-20T21:52:59.043Z,98.93
2022-08-20T21:55:37.396Z,99.02
2022-08-20T21:58:08.586Z,98.86
2022-08-20T22:00:59.990Z,98.81
2022-08-20T22:03:34.118Z,98.82
2022-08-20T22:06:11.567Z,98.94
2022-08-20T22:08:39.520Z,98.76
2022-08-20T22:11:10.406Z,98.64
2022-08-20T22:13:39.721Z,99.04
2022-08-20T22:16:10.610Z,98.74
2022-08-20T22:18:39.139Z,98.50
2022-08-20T22:21:13.098Z,98.72
2022-08-20T22:23:42.179Z,98.79
2022-08-20T22:26:10.686Z,98.87
2022-08-20T22:28:38.631Z,99.09
2022-08-20T22:31:07.640Z,99.15
2022-08-20T22:33:35.867Z,98.68
2022-08-20T22:36:06.250Z,98.53
2022-08-20T22:38:34.036Z,98.52
2022-08-20T22:41:04.221Z,98.48
2022-08-20T22:43:35.508Z,98.62
2022-08-20T22:46:15.146Z,98.54
2022-08-20T22:48:43.633Z,98.62
2022-08-20T22:51:26.790Z,98.44
2022-08-20T22:53:54.879Z,98.64
2022-08-20T22:56:22.949Z,98.41
2022-08-20T22:58:51.002Z,98.06
2022-08-20T23:01:20.306Z,98.00
2022-08-20T23:03:48.244Z,97.89
2022-08-20T23:06:16.341Z,97.68
2022-08-20T23:08:45.464Z,97.24
2022-08-20T23:11:13.869Z,97.25
2022-08-20T23:13:41.656Z,97.52
2022-08-20T23:16:09.470Z,97.88
2022-08-20T23:18:37.367Z,97.79
2022-08-20T23:21:05.425Z,97.70
2022-08-20T23:23:33.531Z,97.89
2022-08-20T23:26:01.837Z,98.12
2022-08-20T23:28:29.806Z,98.08
2022-08-20T23:30:58.002Z,98.05
2022-08-20T23:33:25.895Z,97.49
2022-08-20T23:35:53.867Z,97.87
2022-08-20T23:38:21.704Z,97.27
2022-08-20T23:40:49.508Z,97.13
2022-08-20T23:43:18.662Z,97.26
2022-08-20T23:45:46.599Z,96.96
2022-08-20T23:48:14.371Z,96.88
2022-08-20T23:50:42.556Z,96.67
2022-08-20T23:53:10.566Z,97.20
2022-08-20T23:55:39.745Z,97.03
2022-08-20T23:58:08.529Z,97.59
